Time;durP1;ratioP1;P1;durP2;ratioP2;P2;SDS_P1;SDS_P2;PMS_P1;PMS_P2;Temp;Humidity;BMP_temperature;BMP_pressure;BME280_temperature;BME280_humidity;BME280_pressure;Samples;Min_cycle;Max_cycle;Signal;HPM_P1;HPM_P2
2023/04/24 00:00:47;;;;;;;6.30;4.60;;;;;;;;;;107609;284;39880;-29
2023/04/24 00:03:30;;;;;;;6.70;4.60;;;;;;;;;;107666;283;42744;-29
2023/04/24 00:06:06;;;;;;;5.70;4.50;;;;;;;;;;107648;285;43571;-29
2023/04/24 00:08:42;;;;;;;6.00;4.50;;;;;;;;;;107610;285;38768;-29
2023/04/24 00:11:16;;;;;;;6.50;4.80;;;;;;;;;;107599;285;39880;-29
2023/04/24 00:13:50;;;;;;;6.00;4.70;;;;;;;;;;107650;282;45140;-29
2023/04/24 00:16:25;;;;;;;6.10;4.90;;;;;;;;;;107637;284;42437;-29
2023/04/24 00:19:07;;;;;;;6.50;4.60;;;;;;;;;;106984;285;893636;-29
2023/04/24 00:21:45;;;;;;;6.00;4.50;;;;;;;;;;107632;285;39722;-29
2023/04/24 00:24:21;;;;;;;5.90;4.70;;;;;;;;;;107638;285;43080;-29
2023/04/24 00:26:56;;;;;;;5.80;4.60;;;;;;;;;;107652;285;42332;-29
2023/04/24 00:29:33;;;;;;;5.70;4.60;;;;;;;;;;107638;285;38793;-29
2023/04/24 00:32:07;;;;;;;5.80;4.60;;;;;;;;;;107612;285;39850;-29
2023/04/24 00:34:44;;;;;;;6.20;4.60;;;;;;;;;;107626;290;43048;-29
2023/04/24 00:37:19;;;;;;;6.50;5.00;;;;;;;;;;107625;283;41263;-29
2023/04/24 00:39:54;;;;;;;5.80;4.70;;;;;;;;;;107628;282;38930;-29
2023/04/24 00:42:31;;;;;;;6.10;4.80;;;;;;;;;;107609;285;39833;-29
2023/04/24 00:45:06;;;;;;;6.50;4.90;;;;;;;;;;107635;285;42678;-29
2023/04/24 00:47:41;;;;;;;6.10;4.90;;;;;;;;;;107641;283;44402;-29
2023/04/24 00:50:17;;;;;;;6.10;4.80;;;;;;;;;;107465;286;38495;-29
2023/04/24 00:52:52;;;;;;;5.40;4.50;;;;;;;;;;107613;283;39791;-29
2023/04/24 00:55:27;;;;;;;6.00;4.60;;;;;;;;;;107621;285;42866;-29
2023/04/24 00:58:01;;;;;;;6.00;4.80;;;;;;;;;;107646;283;42364;-29
2023/04/24 01:00:41;;;;;;;6.50;5.20;;;;;;;;;;107655;282;38787;-29
2023/04/24 01:03:15;;;;;;;6.00;4.70;;;;;;;;;;107632;286;45438;-29
2023/04/24 01:05:53;;;;;;;6.10;4.90;;;;;;;;;;107637;285;42913;-29
2023/04/24 01:08:28;;;;;;;6.80;5.00;;;;;;;;;;107634;285;41866;-29
2023/04/24 01:11:07;;;;;;;6.00;4.80;;;;;;;;;;107668;285;38959;-29
2023/04/24 01:13:43;;;;;;;6.00;4.90;;;;;;;;;;107558;285;45838;-29
2023/04/24 01:16:20;;;;;;;6.00;5.00;;;;;;;;;;107652;277;42915;-29
2023/04/24 01:18:55;;;;;;;6.30;4.90;;;;;;;;;;107652;283;43189;-29
2023/04/24 01:21:32;;;;;;;6.00;4.70;;;;;;;;;;107592;285;38927;-29
2023/04/24 01:24:08;;;;;;;6.50;5.00;;;;;;;;;;107632;285;39947;-29
2023/04/24 01:26:43;;;;;;;6.00;5.00;;;;;;;;;;107615;283;42967;-29
2023/04/24 01:29:18;;;;;;;6.10;4.90;;;;;;;;;;107654;285;42163;-29
2023/04/24 01:31:53;;;;;;;6.30;5.20;;;;;;;;;;107645;283;38937;-29
2023/04/24 01:34:27;;;;;;;6.60;5.10;;;;;;;;;;107634;283;39730;-29
2023/04/24 01:37:02;;;;;;;5.50;4.70;;;;;;;;;;107672;285;43030;-29
2023/04/24 01:39:37;;;;;;;6.20;5.10;;;;;;;;;;107223;285;542870;-29
2023/04/24 01:42:15;;;;;;;6.00;4.90;;;;;;;;;;107488;285;38806;-29
2023/04/24 01:44:51;;;;;;;6.20;5.00;;;;;;;;;;107680;285;39693;-29
2023/04/24 01:47:27;;;;;;;6.40;5.20;;;;;;;;;;107668;283;43603;-29
2023/04/24 01:50:02;;;;;;;6.30;5.10;;;;;;;;;;107687;284;43434;-29
2023/04/24 01:52:38;;;;;;;5.90;5.30;;;;;;;;;;107655;285;39902;-29
2023/04/24 01:55:13;;;;;;;6.00;5.20;;;;;;;;;;107705;283;39621;-29
2023/04/24 01:57:49;;;;;;;6.10;5.10;;;;;;;;;;107696;285;42932;-29
2023/04/24 02:00:25;;;;;;;6.20;5.10;;;;;;;;;;107660;285;41987;-29
2023/04/24 02:03:01;;;;;;;6.10;5.30;;;;;;;;;;107682;290;39848;-29
2023/04/24 02:05:37;;;;;;;5.90;5.00;;;;;;;;;;107699;283;39729;-29
2023/04/24 02:08:14;;;;;;;6.20;5.00;;;;;;;;;;107665;284;42849;-29
2023/04/24 02:10:49;;;;;;;7.10;5.40;;;;;;;;;;107655;285;43448;-29
2023/04/24 02:13:25;;;;;;;6.10;5.20;;;;;;;;;;107641;286;39809;-29
2023/04/24 02:16:03;;;;;;;6.00;5.30;;;;;;;;;;107658;285;39583;-29
2023/04/24 02:18:40;;;;;;;6.20;5.20;;;;;;;;;;107653;285;42509;-29
2023/04/24 02:21:16;;;;;;;6.30;5.40;;;;;;;;;;107689;277;42280;-30
2023/04/24 02:23:52;;;;;;;6.60;5.30;;;;;;;;;;107676;283;40830;-29
2023/04/24 02:26:26;;;;;;;6.70;5.40;;;;;;;;;;107674;285;39787;-29
2023/04/24 02:29:01;;;;;;;6.20;5.40;;;;;;;;;;107678;285;42756;-29
2023/04/24 02:31:36;;;;;;;6.10;5.40;;;;;;;;;;107665;282;42026;-29
2023/04/24 02:34:10;;;;;;;6.10;5.00;;;;;;;;;;107674;282;38378;-29
2023/04/24 02:36:44;;;;;;;6.20;5.30;;;;;;;;;;107662;282;39628;-29
2023/04/24 02:39:19;;;;;;;6.30;5.60;;;;;;;;;;107681;283;42934;-29
2023/04/24 02:41:54;;;;;;;6.30;5.10;;;;;;;;;;107579;283;41887;-29
2023/04/24 02:44:28;;;;;;;6.40;5.30;;;;;;;;;;107654;283;38833;-29
2023/04/24 02:47:05;;;;;;;6.30;5.40;;;;;;;;;;107690;283;40968;-29
2023/04/24 02:49:41;;;;;;;6.70;5.40;;;;;;;;;;107670;284;42690;-29
2023/04/24 02:52:16;;;;;;;6.80;5.70;;;;;;;;;;107690;285;43348;-29
2023/04/24 02:54:53;;;;;;;6.90;5.70;;;;;;;;;;107649;285;41006;-29
2023/04/24 02:57:30;;;;;;;6.30;5.30;;;;;;;;;;107688;285;39777;-29
2023/04/24 03:00:06;;;;;;;6.50;5.60;;;;;;;;;;107700;285;42783;-29
2023/04/24 03:02:42;;;;;;;6.60;5.70;;;;;;;;;;107674;286;42311;-29
2023/04/24 03:05:19;;;;;;;6.60;5.50;;;;;;;;;;107650;286;38776;-29
2023/04/24 03:07:53;;;;;;;6.70;5.40;;;;;;;;;;107571;283;175274;-29
2023/04/24 03:10:28;;;;;;;6.20;5.50;;;;;;;;;;107666;285;43047;-29
2023/04/24 03:13:02;;;;;;;6.50;5.50;;;;;;;;;;107662;283;43343;-29
2023/04/24 03:15:36;;;;;;;6.50;5.60;;;;;;;;;;107650;283;40854;-29
2023/04/24 03:18:10;;;;;;;6.30;5.30;;;;;;;;;;107725;283;39887;-29
2023/04/24 03:20:45;;;;;;;6.80;5.60;;;;;;;;;;107675;283;44434;-29
2023/04/24 03:23:20;;;;;;;6.60;5.50;;;;;;;;;;107692;284;43255;-29
2023/04/24 03:25:54;;;;;;;6.40;5.40;;;;;;;;;;107657;285;39930;-29
2023/04/24 03:28:28;;;;;;;6.90;5.50;;;;;;;;;;107689;285;41035;-29
2023/04/24 03:31:02;;;;;;;7.60;5.40;;;;;;;;;;107685;285;43070;-29
2023/04/24 03:33:37;;;;;;;6.60;5.50;;;;;;;;;;107683;282;44385;-29
2023/04/24 03:36:12;;;;;;;6.50;5.40;;;;;;;;;;107663;285;40744;-29
2023/04/24 03:38:48;;;;;;;6.90;5.80;;;;;;;;;;107672;285;39608;-29
2023/04/24 03:41:23;;;;;;;6.70;5.30;;;;;;;;;;107686;285;42533;-29
2023/04/24 03:43:57;;;;;;;6.50;5.70;;;;;;;;;;107667;285;42117;-29
2023/04/24 03:46:33;;;;;;;6.90;5.50;;;;;;;;;;107747;285;44224;-29
2023/04/24 03:49:08;;;;;;;7.30;5.80;;;;;;;;;;107686;277;39719;-29
2023/04/24 03:51:42;;;;;;;7.00;5.80;;;;;;;;;;107655;283;42818;-29
2023/04/24 03:54:18;;;;;;;8.40;5.80;;;;;;;;;;107685;285;42134;-29
2023/04/24 03:56:55;;;;;;;7.70;6.00;;;;;;;;;;107619;282;44403;-29
2023/04/24 03:59:30;;;;;;;7.50;5.80;;;;;;;;;;107663;285;39711;-29
2023/04/24 04:02:05;;;;;;;7.20;5.40;;;;;;;;;;107670;285;43267;-28
2023/04/24 04:04:39;;;;;;;7.30;5.70;;;;;;;;;;107656;285;42018;-28
2023/04/24 04:07:15;;;;;;;7.70;5.90;;;;;;;;;;107690;285;38732;-28
2023/04/24 04:09:50;;;;;;;7.00;5.90;;;;;;;;;;107677;283;39613;-28
2023/04/24 04:12:25;;;;;;;7.10;5.80;;;;;;;;;;107671;285;44242;-28
2023/04/24 04:15:00;;;;;;;7.10;5.70;;;;;;;;;;107636;283;41982;-28
2023/04/24 04:17:38;;;;;;;7.20;5.90;;;;;;;;;;107552;285;175846;-28
2023/04/24 04:20:14;;;;;;;7.20;6.10;;;;;;;;;;107678;285;39721;-28
2023/04/24 04:22:49;;;;;;;6.50;5.60;;;;;;;;;;107666;285;42739;-28
2023/04/24 04:25:25;;;;;;;6.60;5.90;;;;;;;;;;107616;285;41965;-28
2023/04/24 04:28:00;;;;;;;7.70;6.30;;;;;;;;;;107666;285;44777;-28
2023/04/24 04:30:34;;;;;;;7.50;6.20;;;;;;;;;;107645;285;39616;-28
2023/04/24 04:33:10;;;;;;;6.90;5.70;;;;;;;;;;107640;282;42951;-28
2023/04/24 04:35:44;;;;;;;6.80;6.00;;;;;;;;;;107524;282;175586;-28
2023/04/24 04:38:21;;;;;;;6.80;6.10;;;;;;;;;;107685;283;44829;-28
2023/04/24 04:40:58;;;;;;;7.30;6.00;;;;;;;;;;107649;285;41085;-28
2023/04/24 04:43:34;;;;;;;7.60;5.90;;;;;;;;;;107697;285;42787;-28
2023/04/24 04:46:10;;;;;;;6.90;6.10;;;;;;;;;;107588;285;41968;-28
2023/04/24 04:48:44;;;;;;;6.90;5.90;;;;;;;;;;107645;285;38628;-28
2023/04/24 04:51:18;;;;;;;7.30;6.00;;;;;;;;;;107657;290;39599;-28
2023/04/24 04:53:53;;;;;;;7.10;5.90;;;;;;;;;;107638;285;42873;-28
2023/04/24 04:56:29;;;;;;;7.90;6.00;;;;;;;;;;107591;282;43463;-28
2023/04/24 04:59:07;;;;;;;7.70;6.50;;;;;;;;;;107657;285;38414;-28
2023/04/24 05:01:41;;;;;;;8.00;6.50;;;;;;;;;;107636;285;39541;-28
2023/04/24 05:04:15;;;;;;;6.90;5.70;;;;;;;;;;107648;285;42871;-28
2023/04/24 05:06:51;;;;;;;7.80;6.30;;;;;;;;;;107610;285;43116;-28
2023/04/24 05:09:29;;;;;;;6.90;6.10;;;;;;;;;;107667;283;38725;-28
2023/04/24 05:12:07;;;;;;;7.40;5.90;;;;;;;;;;107649;285;39538;-28
2023/04/24 05:14:41;;;;;;;7.40;6.20;;;;;;;;;;107693;285;42742;-28
2023/04/24 05:17:16;;;;;;;7.70;6.40;;;;;;;;;;107636;285;43317;-28
2023/04/24 05:19:51;;;;;;;7.00;6.10;;;;;;;;;;107663;283;39820;-28
2023/04/24 05:22:25;;;;;;;7.70;6.00;;;;;;;;;;107000;285;895973;-28
2023/04/24 05:25:01;;;;;;;7.20;6.20;;;;;;;;;;107680;283;42942;-28
2023/04/24 05:27:37;;;;;;;7.50;6.20;;;;;;;;;;107618;289;42083;-28
2023/04/24 05:30:13;;;;;;;7.70;6.30;;;;;;;;;;107679;285;38657;-28
2023/04/24 05:32:47;;;;;;;7.10;6.00;;;;;;;;;;107670;283;39337;-28
2023/04/24 05:35:24;;;;;;;7.40;6.50;;;;;;;;;;107643;285;42922;-28
2023/04/24 05:38:00;;;;;;;8.00;6.60;;;;;;;;;;107571;277;42528;-28
2023/04/24 05:40:35;;;;;;;7.90;6.50;;;;;;;;;;107659;285;39105;-28
2023/04/24 05:43:10;;;;;;;7.00;6.30;;;;;;;;;;107636;283;39897;-28
2023/04/24 05:45:45;;;;;;;7.50;6.60;;;;;;;;;;107545;283;42996;-28
2023/04/24 05:48:21;;;;;;;7.20;6.30;;;;;;;;;;107603;283;42086;-28
2023/04/24 05:50:57;;;;;;;7.40;6.20;;;;;;;;;;107675;285;38742;-28
2023/04/24 05:53:33;;;;;;;6.80;5.90;;;;;;;;;;107659;285;39826;-29
2023/04/24 05:56:09;;;;;;;7.00;6.00;;;;;;;;;;107618;285;42855;-29
2023/04/24 05:58:44;;;;;;;6.80;6.00;;;;;;;;;;107620;285;41764;-29
2023/04/24 06:01:19;;;;;;;7.80;6.30;;;;;;;;;;107666;285;40516;-29
2023/04/24 06:03:57;;;;;;;7.30;6.30;;;;;;;;;;107653;285;40070;-29
2023/04/24 06:06:34;;;;;;;7.40;6.10;;;;;;;;;;107664;285;42717;-29
2023/04/24 06:09:08;;;;;;;7.30;5.90;;;;;;;;;;107613;285;41960;-30
2023/04/24 06:11:44;;;;;;;7.60;6.00;;;;;;;;;;107667;285;39786;-29
2023/04/24 06:14:19;;;;;;;7.30;6.20;;;;;;;;;;107628;285;40242;-29
2023/04/24 06:16:53;;;;;;;7.20;6.00;;;;;;;;;;107646;286;42730;-29
2023/04/24 06:19:28;;;;;;;8.00;6.20;;;;;;;;;;107636;285;42155;-29
2023/04/24 06:22:03;;;;;;;7.20;6.20;;;;;;;;;;107653;283;38655;-29
2023/04/24 06:24:39;;;;;;;7.40;6.10;;;;;;;;;;107646;285;39572;-29
2023/04/24 06:27:15;;;;;;;7.70;6.30;;;;;;;;;;107614;286;42883;-29
2023/04/24 06:29:54;;;;;;;7.40;6.30;;;;;;;;;;107620;283;43311;-29
2023/04/24 06:32:30;;;;;;;7.10;6.10;;;;;;;;;;107652;285;38818;-29
2023/04/24 06:35:09;;;;;;;7.00;6.10;;;;;;;;;;107709;285;39516;-29
2023/04/24 06:37:47;;;;;;;8.00;6.30;;;;;;;;;;107675;285;42913;-29
2023/04/24 06:40:22;;;;;;;7.50;6.10;;;;;;;;;;107633;283;42019;-29
2023/04/24 06:42:57;;;;;;;7.60;6.40;;;;;;;;;;107679;285;38665;-29
2023/04/24 06:45:33;;;;;;;7.90;6.50;;;;;;;;;;107668;283;40938;-29
2023/04/24 06:48:08;;;;;;;7.00;6.00;;;;;;;;;;107667;283;42668;-29
2023/04/24 06:50:44;;;;;;;8.10;6.50;;;;;;;;;;107640;282;41966;-29
2023/04/24 06:53:20;;;;;;;7.50;6.60;;;;;;;;;;107662;285;38426;-29
2023/04/24 06:55:58;;;;;;;7.60;6.30;;;;;;;;;;107638;285;39564;-29
2023/04/24 06:58:32;;;;;;;7.80;6.90;;;;;;;;;;107624;285;42714;-29
2023/04/24 07:01:08;;;;;;;8.00;7.10;;;;;;;;;;107676;277;41700;-29
2023/04/24 07:03:44;;;;;;;9.00;7.60;;;;;;;;;;107668;283;39158;-29
2023/04/24 07:06:24;;;;;;;10.20;8.00;;;;;;;;;;107705;285;41786;-29
2023/04/24 07:09:00;;;;;;;10.70;8.00;;;;;;;;;;107551;285;175544;-29
2023/04/24 07:11:38;;;;;;;11.80;7.90;;;;;;;;;;107702;286;42291;-29
2023/04/24 07:14:12;;;;;;;9.50;7.90;;;;;;;;;;107677;285;38481;-29
2023/04/24 07:16:49;;;;;;;12.50;8.20;;;;;;;;;;107700;285;39515;-29
2023/04/24 07:19:26;;;;;;;10.70;8.20;;;;;;;;;;107662;285;42932;-29
2023/04/24 07:22:01;;;;;;;10.60;7.90;;;;;;;;;;107693;281;43320;-29
2023/04/24 07:24:38;;;;;;;12.60;8.20;;;;;;;;;;107682;277;38530;-29
2023/04/24 07:27:14;;;;;;;11.30;7.90;;;;;;;;;;107630;285;39491;-29
2023/04/24 07:29:49;;;;;;;12.40;8.00;;;;;;;;;;107671;285;43448;-29
2023/04/24 07:32:23;;;;;;;11.50;8.30;;;;;;;;;;107670;283;42447;-29
2023/04/24 07:34:57;;;;;;;10.70;8.10;;;;;;;;;;107669;285;38979;-29
2023/04/24 07:37:33;;;;;;;10.60;8.20;;;;;;;;;;107712;285;40429;-29
2023/04/24 07:40:09;;;;;;;10.30;8.20;;;;;;;;;;107620;283;42999;-29
2023/04/24 07:42:45;;;;;;;10.80;8.20;;;;;;;;;;107695;285;43077;-29
2023/04/24 07:45:25;;;;;;;11.20;8.10;;;;;;;;;;107697;281;39207;-32
2023/04/24 07:48:02;;;;;;;10.00;8.60;;;;;;;;;;107601;283;39704;-29
2023/04/24 07:50:36;;;;;;;9.80;8.40;;;;;;;;;;107569;285;43906;-29
2023/04/24 07:53:12;;;;;;;9.90;8.20;;;;;;;;;;107650;285;42176;-29
2023/04/24 07:55:48;;;;;;;10.60;8.30;;;;;;;;;;107635;285;38919;-30
2023/04/24 07:58:26;;;;;;;10.20;8.50;;;;;;;;;;107631;285;39824;-30
2023/04/24 08:01:00;;;;;;;11.30;8.10;;;;;;;;;;107618;283;42949;-30
2023/04/24 08:03:34;;;;;;;10.40;7.80;;;;;;;;;;107628;285;42281;-30
2023/04/24 08:06:09;;;;;;;11.50;8.00;;;;;;;;;;107634;283;38904;-30
2023/04/24 08:08:43;;;;;;;9.40;7.90;;;;;;;;;;107622;286;39616;-30
2023/04/24 08:11:18;;;;;;;9.80;8.10;;;;;;;;;;107539;283;42760;-30
2023/04/24 08:13:52;;;;;;;8.80;7.50;;;;;;;;;;107550;285;42138;-30
2023/04/24 08:16:30;;;;;;;8.50;7.60;;;;;;;;;;107567;283;38832;-30
2023/04/24 08:19:06;;;;;;;10.00;7.70;;;;;;;;;;107566;283;39907;-30
2023/04/24 08:21:41;;;;;;;9.20;7.90;;;;;;;;;;107590;285;43022;-30
2023/04/24 08:24:16;;;;;;;9.20;7.30;;;;;;;;;;107679;285;42316;-30
2023/04/24 08:26:53;;;;;;;9.20;7.20;;;;;;;;;;107609;283;38842;-30
2023/04/24 08:29:29;;;;;;;9.20;7.30;;;;;;;;;;107615;283;40013;-30
2023/04/24 08:32:05;;;;;;;9.60;7.50;;;;;;;;;;107573;282;43113;-30
2023/04/24 08:34:39;;;;;;;9.40;7.60;;;;;;;;;;107637;285;42236;-30
2023/04/24 08:37:14;;;;;;;9.30;7.50;;;;;;;;;;107610;282;38678;-30
2023/04/24 08:39:48;;;;;;;9.50;7.30;;;;;;;;;;107663;285;39708;-30
2023/04/24 08:42:24;;;;;;;9.80;7.50;;;;;;;;;;107598;290;43075;-31
2023/04/24 08:44:58;;;;;;;8.20;7.30;;;;;;;;;;107653;282;43082;-31
2023/04/24 08:47:34;;;;;;;9.20;7.20;;;;;;;;;;107468;287;38840;-31
2023/04/24 08:50:12;;;;;;;9.50;7.60;;;;;;;;;;107611;283;39755;-31
2023/04/24 08:52:48;;;;;;;8.50;7.00;;;;;;;;;;107621;284;43999;-29
2023/04/24 08:55:23;;;;;;;8.60;7.10;;;;;;;;;;107616;285;42226;-30
2023/04/24 08:58:00;;;;;;;8.80;7.70;;;;;;;;;;107638;285;38758;-29
2023/04/24 09:00:35;;;;;;;10.20;8.00;;;;;;;;;;107654;285;40859;-30
2023/04/24 09:03:10;;;;;;;9.90;7.30;;;;;;;;;;107604;285;44422;-30
2023/04/24 09:05:47;;;;;;;9.10;7.30;;;;;;;;;;107651;285;42197;-30
2023/04/24 09:08:27;;;;;;;8.60;7.60;;;;;;;;;;107630;285;38730;-30
2023/04/24 09:11:04;;;;;;;8.30;7.10;;;;;;;;;;107640;289;40808;-30
2023/04/24 09:13:40;;;;;;;9.60;7.60;;;;;;;;;;107576;285;48807;-30
2023/04/24 09:16:16;;;;;;;9.80;8.00;;;;;;;;;;107626;283;43427;-30
2023/04/24 09:18:51;;;;;;;8.80;7.50;;;;;;;;;;107627;283;39622;-30
2023/04/24 09:21:26;;;;;;;9.10;7.70;;;;;;;;;;107628;285;40877;-30
2023/04/24 09:24:06;;;;;;;8.80;7.60;;;;;;;;;;107615;285;42873;-30
2023/04/24 09:26:45;;;;;;;9.10;7.50;;;;;;;;;;107630;277;42145;-30
2023/04/24 09:29:25;;;;;;;9.70;7.80;;;;;;;;;;107536;285;175120;-30
2023/04/24 09:32:00;;;;;;;9.60;8.10;;;;;;;;;;107606;285;39787;-30
2023/04/24 09:34:35;;;;;;;9.20;7.60;;;;;;;;;;107624;277;42639;-30
2023/04/24 09:37:10;;;;;;;9.00;7.60;;;;;;;;;;107656;285;42096;-30
2023/04/24 09:39:44;;;;;;;8.20;7.20;;;;;;;;;;107222;283;526058;-30
2023/04/24 09:42:19;;;;;;;9.10;7.90;;;;;;;;;;107483;286;39820;-30
2023/04/24 09:44:59;;;;;;;9.70;7.60;;;;;;;;;;107618;285;42882;-30
2023/04/24 09:47:47;;;;;;;8.10;7.20;;;;;;;;;;107631;285;42171;-30
2023/04/24 09:50:23;;;;;;;8.50;7.60;;;;;;;;;;106956;284;894412;-30
2023/04/24 09:53:07;;;;;;;8.70;7.40;;;;;;;;;;107606;285;39706;-30
2023/04/24 09:55:50;;;;;;;10.00;7.50;;;;;;;;;;107433;285;44198;-30
2023/04/24 09:58:29;;;;;;;9.40;7.30;;;;;;;;;;107591;285;41941;-30
2023/04/24 10:01:03;;;;;;;8.50;7.20;;;;;;;;;;107620;285;38583;-30
2023/04/24 10:03:39;;;;;;;8.70;7.30;;;;;;;;;;107589;285;40861;-30
2023/04/24 10:06:15;;;;;;;7.90;7.00;;;;;;;;;;107645;283;42711;-31
2023/04/24 10:08:50;;;;;;;8.60;7.40;;;;;;;;;;107669;282;43410;-31
2023/04/24 10:11:26;;;;;;;7.90;6.90;;;;;;;;;;107687;283;39812;-31
2023/04/24 10:14:03;;;;;;;8.30;7.00;;;;;;;;;;107587;285;40942;-31
2023/04/24 10:16:40;;;;;;;8.40;7.00;;;;;;;;;;107661;277;42904;-32
2023/04/24 10:19:16;;;;;;;7.80;6.80;;;;;;;;;;107754;285;43394;-31
2023/04/24 10:21:52;;;;;;;8.00;7.10;;;;;;;;;;107695;285;38800;-31
2023/04/24 10:24:27;;;;;;;7.90;6.70;;;;;;;;;;107632;283;39706;-30
2023/04/24 10:27:02;;;;;;;7.50;6.70;;;;;;;;;;107723;283;43761;-30
2023/04/24 10:29:43;;;;;;;7.70;6.90;;;;;;;;;;107713;285;42237;-31
2023/04/24 10:32:22;;;;;;;8.40;6.90;;;;;;;;;;107765;283;39212;-32
2023/04/24 10:34:57;;;;;;;8.60;6.80;;;;;;;;;;107689;285;39437;-31
2023/04/24 10:37:38;;;;;;;8.00;6.30;;;;;;;;;;107658;285;42802;-31
2023/04/24 10:40:17;;;;;;;7.40;6.40;;;;;;;;;;107617;283;41847;-31
2023/04/24 10:42:56;;;;;;;7.30;6.30;;;;;;;;;;107662;285;38826;-31
2023/04/24 10:45:32;;;;;;;7.60;6.60;;;;;;;;;;107634;285;47517;-32
2023/04/24 10:48:13;;;;;;;6.90;6.20;;;;;;;;;;107685;283;42720;-32
2023/04/24 10:50:53;;;;;;;7.40;6.60;;;;;;;;;;107607;285;43325;-32
2023/04/24 10:53:32;;;;;;;6.80;6.10;;;;;;;;;;107595;285;40110;-31
2023/04/24 10:56:10;;;;;;;7.80;6.40;;;;;;;;;;107639;285;45782;-31
2023/04/24 10:58:55;;;;;;;7.20;6.00;;;;;;;;;;107660;285;43893;-31
2023/04/24 11:01:31;;;;;;;8.30;6.00;;;;;;;;;;107651;282;41752;-31
2023/04/24 11:04:10;;;;;;;7.20;6.00;;;;;;;;;;107615;283;38681;-31
2023/04/24 11:06:45;;;;;;;7.60;6.40;;;;;;;;;;107638;285;39552;-31
2023/04/24 11:09:24;;;;;;;7.50;6.30;;;;;;;;;;107669;285;42730;-31
2023/04/24 11:12:09;;;;;;;7.20;6.00;;;;;;;;;;107668;285;43432;-31
2023/04/24 11:15:07;;;;;;;6.80;6.00;;;;;;;;;;107619;283;39764;-31
2023/04/24 11:17:45;;;;;;;7.00;6.10;;;;;;;;;;107623;285;39629;-31
2023/04/24 11:20:27;;;;;;;6.80;6.00;;;;;;;;;;107692;283;42919;-31
2023/04/24 11:23:09;;;;;;;7.10;5.90;;;;;;;;;;107493;284;42074;-31
2023/04/24 11:25:44;;;;;;;7.20;5.80;;;;;;;;;;107629;282;38919;-31
2023/04/24 11:28:21;;;;;;;6.60;5.70;;;;;;;;;;107675;285;39499;-31
2023/04/24 11:30:58;;;;;;;6.70;5.80;;;;;;;;;;107644;282;42663;-31
2023/04/24 11:33:35;;;;;;;6.70;5.70;;;;;;;;;;107658;285;42017;-31
2023/04/24 11:36:10;;;;;;;6.40;5.60;;;;;;;;;;107644;277;38666;-31
2023/04/24 11:38:44;;;;;;;6.50;5.80;;;;;;;;;;107696;285;39691;-31
2023/04/24 11:41:20;;;;;;;7.00;6.20;;;;;;;;;;107645;285;42833;-31
2023/04/24 11:43:57;;;;;;;6.40;5.80;;;;;;;;;;107669;285;41974;-31
2023/04/24 11:46:35;;;;;;;6.30;5.30;;;;;;;;;;107646;285;38759;-31
2023/04/24 11:49:12;;;;;;;6.50;5.50;;;;;;;;;;107662;285;39282;-31
2023/04/24 11:51:49;;;;;;;6.40;5.40;;;;;;;;;;107714;277;42903;-31
2023/04/24 11:54:28;;;;;;;6.30;5.60;;;;;;;;;;107631;285;42012;-31
2023/04/24 11:57:09;;;;;;;6.40;5.70;;;;;;;;;;107657;285;38985;-31
2023/04/24 11:59:46;;;;;;;6.20;5.20;;;;;;;;;;107698;285;39711;-30
2023/04/24 12:02:29;;;;;;;6.40;5.30;;;;;;;;;;107701;282;42901;-31
2023/04/24 12:05:06;;;;;;;6.00;5.20;;;;;;;;;;107633;285;41953;-30
2023/04/24 12:07:45;;;;;;;6.00;5.00;;;;;;;;;;107725;277;44894;-30
2023/04/24 12:10:25;;;;;;;6.40;5.30;;;;;;;;;;107740;283;39567;-31
2023/04/24 12:13:00;;;;;;;6.20;5.00;;;;;;;;;;107728;282;42677;-31
2023/04/24 12:15:37;;;;;;;5.90;5.00;;;;;;;;;;107692;285;42004;-31
2023/04/24 12:18:16;;;;;;;5.90;5.00;;;;;;;;;;107689;285;38349;-31
2023/04/24 12:20:50;;;;;;;6.80;5.30;;;;;;;;;;107668;283;40991;-31
2023/04/24 12:23:38;;;;;;;5.80;4.90;;;;;;;;;;107667;285;42838;-31
2023/04/24 12:26:16;;;;;;;5.70;4.70;;;;;;;;;;107653;285;42024;-31
2023/04/24 12:28:53;;;;;;;5.90;4.60;;;;;;;;;;107696;285;38643;-30
2023/04/24 12:31:29;;;;;;;5.70;4.60;;;;;;;;;;107660;277;39436;-31
2023/04/24 12:34:04;;;;;;;5.70;4.80;;;;;;;;;;107706;285;43994;-31
2023/04/24 12:36:39;;;;;;;5.90;4.60;;;;;;;;;;107689;285;42308;-31
2023/04/24 12:39:20;;;;;;;5.80;4.80;;;;;;;;;;107678;282;38792;-30
2023/04/24 12:42:01;;;;;;;5.90;5.20;;;;;;;;;;107703;282;39563;-30
2023/04/24 12:44:37;;;;;;;6.30;5.00;;;;;;;;;;107687;285;42737;-30
2023/04/24 12:47:13;;;;;;;5.60;4.80;;;;;;;;;;107754;285;43428;-31
2023/04/24 12:49:48;;;;;;;5.70;4.80;;;;;;;;;;107687;285;38623;-30
2023/04/24 12:52:25;;;;;;;5.60;4.70;;;;;;;;;;107709;283;39647;-30
2023/04/24 12:55:01;;;;;;;6.20;4.70;;;;;;;;;;107694;285;42871;-31
2023/04/24 12:57:35;;;;;;;6.70;4.90;;;;;;;;;;107641;285;42013;-31
2023/04/24 13:00:11;;;;;;;6.50;4.70;;;;;;;;;;107755;283;38983;-31
2023/04/24 13:02:51;;;;;;;6.00;5.00;;;;;;;;;;107672;285;39575;-31
2023/04/24 13:05:25;;;;;;;6.00;4.60;;;;;;;;;;107717;283;42990;-31
2023/04/24 13:08:02;;;;;;;7.00;4.80;;;;;;;;;;107611;277;42369;-31
2023/04/24 13:10:39;;;;;;;6.40;4.90;;;;;;;;;;107634;285;38630;-31
2023/04/24 13:13:14;;;;;;;6.70;4.70;;;;;;;;;;107683;283;39656;-31
2023/04/24 13:15:50;;;;;;;6.50;4.60;;;;;;;;;;107578;285;43032;-31
2023/04/24 13:18:25;;;;;;;6.40;4.70;;;;;;;;;;107603;285;42177;-31
2023/04/24 13:21:01;;;;;;;5.70;4.50;;;;;;;;;;107696;283;38833;-31
2023/04/24 13:23:36;;;;;;;5.80;4.70;;;;;;;;;;107676;285;39585;-31
2023/04/24 13:26:11;;;;;;;5.60;4.60;;;;;;;;;;107658;285;42752;-31
2023/04/24 13:28:46;;;;;;;6.50;4.70;;;;;;;;;;107507;285;175484;-31
2023/04/24 13:31:20;;;;;;;6.10;4.70;;;;;;;;;;107670;285;38773;-31
2023/04/24 13:33:54;;;;;;;6.50;4.40;;;;;;;;;;107681;286;39718;-31
2023/04/24 13:36:30;;;;;;;6.20;4.70;;;;;;;;;;107699;283;44274;-31
2023/04/24 13:39:08;;;;;;;5.50;4.40;;;;;;;;;;107664;285;42134;-31
2023/04/24 13:41:42;;;;;;;5.70;4.60;;;;;;;;;;107665;285;39893;-31
2023/04/24 13:44:18;;;;;;;5.80;4.60;;;;;;;;;;107673;285;40878;-31
2023/04/24 13:46:56;;;;;;;5.70;4.30;;;;;;;;;;107655;285;43991;-31
2023/04/24 13:49:30;;;;;;;6.10;4.70;;;;;;;;;;107618;285;47803;-31
2023/04/24 13:52:07;;;;;;;5.90;4.50;;;;;;;;;;107727;285;38704;-31
2023/04/24 13:54:42;;;;;;;6.60;4.70;;;;;;;;;;107665;285;39322;-31
2023/04/24 13:57:16;;;;;;;6.00;4.50;;;;;;;;;;107654;285;43678;-31
2023/04/24 13:59:50;;;;;;;5.80;4.50;;;;;;;;;;107613;286;48361;-31
2023/04/24 14:02:24;;;;;;;5.40;4.30;;;;;;;;;;107648;283;38777;-31
2023/04/24 14:04:58;;;;;;;5.90;4.20;;;;;;;;;;107664;285;41233;-31
2023/04/24 14:07:34;;;;;;;5.70;4.20;;;;;;;;;;107615;283;43048;-31
2023/04/24 14:10:10;;;;;;;5.60;4.40;;;;;;;;;;107558;283;48021;-31
2023/04/24 14:12:44;;;;;;;4.80;4.10;;;;;;;;;;107593;284;39979;-31
2023/04/24 14:15:19;;;;;;;6.10;4.60;;;;;;;;;;107436;285;39887;-31
2023/04/24 14:17:55;;;;;;;5.50;4.60;;;;;;;;;;107643;285;45058;-31
2023/04/24 14:20:30;;;;;;;6.80;4.50;;;;;;;;;;107606;283;49954;-31
2023/04/24 14:23:07;;;;;;;5.60;4.20;;;;;;;;;;107606;283;39000;-31
2023/04/24 14:25:42;;;;;;;5.60;4.40;;;;;;;;;;107580;290;39703;-31
2023/04/24 14:28:17;;;;;;;5.90;4.30;;;;;;;;;;107621;285;42919;-31
2023/04/24 14:30:52;;;;;;;5.20;4.20;;;;;;;;;;107559;286;47978;-31
2023/04/24 14:33:26;;;;;;;5.50;4.40;;;;;;;;;;107596;283;38915;-31
2023/04/24 14:36:02;;;;;;;6.20;4.20;;;;;;;;;;107582;285;39890;-31
2023/04/24 14:38:36;;;;;;;5.50;4.30;;;;;;;;;;107602;283;42917;-31
2023/04/24 14:41:11;;;;;;;5.60;4.40;;;;;;;;;;107557;283;49514;-31
2023/04/24 14:43:47;;;;;;;5.50;4.40;;;;;;;;;;107646;283;39084;-31
2023/04/24 14:46:22;;;;;;;5.40;4.20;;;;;;;;;;107603;283;39894;-31
2023/04/24 14:48:57;;;;;;;6.40;4.60;;;;;;;;;;107688;286;43958;-31
2023/04/24 14:51:32;;;;;;;5.30;4.40;;;;;;;;;;107687;285;48886;-31
2023/04/24 14:54:07;;;;;;;5.50;4.50;;;;;;;;;;107606;285;39903;-31
2023/04/24 14:56:43;;;;;;;5.40;4.30;;;;;;;;;;107619;283;41028;-31
2023/04/24 14:59:18;;;;;;;5.40;4.30;;;;;;;;;;107623;285;43116;-31
2023/04/24 15:01:57;;;;;;;6.00;4.40;;;;;;;;;;107632;283;49088;-31
2023/04/24 15:04:48;;;;;;;5.70;4.40;;;;;;;;;;107709;285;38640;-31
2023/04/24 15:07:22;;;;;;;5.70;4.30;;;;;;;;;;107709;277;39437;-31
2023/04/24 15:09:56;;;;;;;5.80;4.40;;;;;;;;;;107583;283;43076;-32
2023/04/24 15:12:30;;;;;;;6.20;4.40;;;;;;;;;;107649;285;43217;-31
2023/04/24 15:15:08;;;;;;;5.90;4.40;;;;;;;;;;107636;277;40086;-30
2023/04/24 15:17:42;;;;;;;5.40;4.40;;;;;;;;;;107668;285;40879;-31
2023/04/24 15:20:17;;;;;;;5.30;4.20;;;;;;;;;;107624;285;42921;-32
2023/04/24 15:22:52;;;;;;;5.50;4.10;;;;;;;;;;107687;285;43467;-32
2023/04/24 15:25:27;;;;;;;5.50;4.30;;;;;;;;;;107735;283;39928;-32
2023/04/24 15:28:04;;;;;;;5.90;4.40;;;;;;;;;;107643;277;40889;-31
2023/04/24 15:30:41;;;;;;;6.20;4.50;;;;;;;;;;107577;285;42879;-31
2023/04/24 15:33:14;;;;;;;5.50;4.20;;;;;;;;;;107634;285;43074;-31